createdAt,value
2023-02-15T00:00:13.968Z,99.14
2023-02-15T00:03:02.043Z,98.81
2023-02-15T00:05:32.753Z,99.14
2023-02-15T00:08:00.362Z,99.63
2023-02-15T00:10:27.479Z,99.67
2023-02-15T00:12:55.642Z,99.47
2023-02-15T00:15:23.770Z,99.88
2023-02-15T00:17:52.701Z,99.63
2023-02-15T00:20:20.160Z,99.27
2023-02-15T00:22:48.013Z,99.15
2023-02-15T00:25:15.934Z,99.55
2023-02-15T00:27:44.916Z,99.62
2023-02-15T00:30:13.697Z,99.44
2023-02-15T00:32:41.587Z,99.90
2023-02-15T00:35:10.844Z,99.44
2023-02-15T00:37:39.168Z,99.27
2023-02-15T00:40:07.354Z,99.32
2023-02-15T00:42:35.416Z,99.32
2023-02-15T00:45:02.730Z,99.36
2023-02-15T00:47:33.352Z,99.60
2023-02-15T00:50:01.293Z,99.64
2023-02-15T00:52:28.502Z,99.74
2023-02-15T00:54:57.296Z,99.74
2023-02-15T00:57:25.362Z,100.00
2023-02-15T00:59:53.232Z,99.68
2023-02-15T01:02:20.668Z,99.44
2023-02-15T01:04:47.785Z,99.63
2023-02-15T01:07:15.784Z,99.77
2023-02-15T01:09:44.180Z,100.00
2023-02-15T01:12:12.718Z,100.00
2023-02-15T01:14:39.914Z,99.63
2023-02-15T01:17:08.488Z,100.00
2023-02-15T01:19:36.541Z,100.00
2023-02-15T01:22:04.721Z,99.53
2023-02-15T01:24:37.836Z,99.69
2023-02-15T01:27:06.349Z,99.54
2023-02-15T01:29:35.455Z,99.15
2023-02-15T01:32:04.147Z,99.57
2023-02-15T01:34:31.718Z,99.63
2023-02-15T01:37:01.557Z,99.57
2023-02-15T01:39:29.442Z,99.43
2023-02-15T01:42:00.036Z,99.39
2023-02-15T01:44:46.165Z,99.24
2023-02-15T01:47:19.613Z,99.41
2023-02-15T01:49:49.993Z,99.66
2023-02-15T01:52:20.516Z,99.76
2023-02-15T01:54:49.280Z,99.71
2023-02-15T01:57:23.213Z,99.42
2023-02-15T01:59:57.674Z,99.66
2023-02-15T02:02:26.678Z,99.25
2023-02-15T02:05:09.578Z,99.13
2023-02-15T02:07:44.988Z,99.48
2023-02-15T02:10:19.766Z,99.62
2023-02-15T02:12:51.177Z,99.25
2023-02-15T02:15:22.250Z,99.92
2023-02-15T02:17:56.570Z,99.89
2023-02-15T02:20:44.638Z,100.00
2023-02-15T02:23:37.027Z,99.65
2023-02-15T02:26:32.868Z,99.44
2023-02-15T02:29:30.514Z,99.63
2023-02-15T02:32:04.514Z,99.68
2023-02-15T02:34:47.996Z,99.84
2023-02-15T02:37:34.740Z,99.85
2023-02-15T02:40:45.812Z,99.82
2023-02-15T02:43:37.943Z,100.00
2023-02-15T02:46:23.376Z,99.76
2023-02-15T02:48:53.229Z,99.41
2023-02-15T02:51:23.186Z,100.00
2023-02-15T02:53:54.711Z,99.57
2023-02-15T02:56:31.275Z,99.73
2023-02-15T02:59:18.971Z,99.57
2023-02-15T03:02:00.547Z,99.96
2023-02-15T03:04:37.445Z,100.00
2023-02-15T03:07:10.074Z,99.82
2023-02-15T03:09:43.819Z,100.00
2023-02-15T03:12:23.810Z,99.86
2023-02-15T03:14:58.151Z,100.00
2023-02-15T03:17:30.993Z,99.87
2023-02-15T03:20:08.435Z,100.00
2023-02-15T03:22:48.454Z,100.00
2023-02-15T03:25:23.579Z,99.68
2023-02-15T03:28:00.685Z,99.79
2023-02-15T03:30:30.848Z,99.67
2023-02-15T03:33:01.840Z,99.69
2023-02-15T03:35:45.168Z,99.66
2023-02-15T03:38:21.903Z,100.00
2023-02-15T03:41:08.749Z,98.88
2023-02-15T03:43:59.726Z,98.38
2023-02-15T03:46:53.698Z,98.71
2023-02-15T03:49:26.071Z,98.94
2023-02-15T03:51:55.779Z,98.70
2023-02-15T03:54:44.389Z,98.74
2023-02-15T03:57:35.453Z,98.40
2023-02-15T04:00:29.029Z,98.16
2023-02-15T04:03:14.991Z,97.58
2023-02-15T04:05:45.712Z,97.71
2023-02-15T04:08:14.009Z,98.12
2023-02-15T04:10:53.889Z,98.47
2023-02-15T04:13:22.727Z,98.68
2023-02-15T04:16:07.313Z,98.68
2023-02-15T04:19:00.512Z,98.66
2023-02-15T04:21:50.440Z,98.55
2023-02-15T04:24:36.542Z,98.74
2023-02-15T04:27:05.480Z,98.47
2023-02-15T04:29:32.859Z,98.79
2023-02-15T04:32:03.229Z,99.06
2023-02-15T04:34:30.289Z,98.55
2023-02-15T04:36:57.487Z,98.85
2023-02-15T04:39:24.489Z,98.47
2023-02-15T04:41:51.838Z,98.98
2023-02-15T04:44:18.880Z,99.17
2023-02-15T04:46:46.165Z,99.44
2023-02-15T04:49:13.144Z,99.34
2023-02-15T04:51:40.494Z,98.52
2023-02-15T04:54:07.769Z,98.93
2023-02-15T04:56:35.964Z,99.09
2023-02-15T04:59:03.047Z,98.92
2023-02-15T05:01:30.761Z,98.64
2023-02-15T05:03:58.042Z,98.86
2023-02-15T05:06:25.307Z,98.95
2023-02-15T05:08:52.277Z,99.06
2023-02-15T05:11:19.935Z,99.26
2023-02-15T05:13:46.880Z,99.50
2023-02-15T05:16:14.215Z,99.11
2023-02-15T05:18:41.288Z,99.09
2023-02-15T05:21:08.623Z,98.41
2023-02-15T05:23:35.854Z,97.99
2023-02-15T05:26:22.203Z,98.48
2023-02-15T05:28:49.175Z,98.57
2023-02-15T05:31:19.837Z,98.92
2023-02-15T05:33:47.493Z,99.29
2023-02-15T05:36:15.017Z,98.95
2023-02-15T05:38:41.976Z,98.68
2023-02-15T05:41:10.732Z,98.74
2023-02-15T05:43:40.198Z,98.76
2023-02-15T05:46:09.704Z,98.90
2023-02-15T05:48:36.902Z,98.69
2023-02-15T05:51:09.779Z,98.71
2023-02-15T05:53:39.002Z,99.06
2023-02-15T05:56:08.771Z,98.55
2023-02-15T05:58:39.087Z,98.75
2023-02-15T06:01:09.511Z,98.71
2023-02-15T06:03:36.594Z,98.53
2023-02-15T06:06:05.844Z,98.47
2023-02-15T06:08:34.279Z,97.98
2023-02-15T06:11:01.547Z,98.60
2023-02-15T06:13:28.575Z,98.54
2023-02-15T06:15:55.865Z,99.09
2023-02-15T06:18:22.852Z,99.88
2023-02-15T06:20:50.611Z,99.41
2023-02-15T06:23:18.595Z,99.64
2023-02-15T06:25:47.092Z,99.72
2023-02-15T06:28:14.615Z,99.45
2023-02-15T06:30:42.071Z,99.83
2023-02-15T06:33:08.981Z,100.00
2023-02-15T06:35:36.453Z,99.68
2023-02-15T06:38:03.445Z,99.95
2023-02-15T06:40:30.687Z,98.77
2023-02-15T06:42:57.562Z,99.34
2023-02-15T06:45:24.799Z,99.58
2023-02-15T06:47:51.737Z,99.62
2023-02-15T06:50:19.195Z,99.84
2023-02-15T06:52:46.337Z,99.64
2023-02-15T06:55:13.538Z,99.76
2023-02-15T06:57:40.503Z,99.81
2023-02-15T07:00:09.199Z,100.00
2023-02-15T07:02:36.234Z,99.94
2023-02-15T07:05:06.110Z,99.77
2023-02-15T07:07:33.524Z,99.05
2023-02-15T07:10:00.700Z,99.47
2023-02-15T07:12:43.549Z,99.37
2023-02-15T07:15:21.680Z,98.98
2023-02-15T07:17:50.146Z,98.78
2023-02-15T07:20:22.984Z,98.66
2023-02-15T07:22:50.733Z,99.35
2023-02-15T07:25:19.322Z,99.87
2023-02-15T07:27:46.404Z,100.00
2023-02-15T07:30:17.556Z,100.00
2023-02-15T07:33:05.498Z,99.44
2023-02-15T07:35:34.517Z,100.00
2023-02-15T07:38:01.957Z,100.00
2023-02-15T07:40:29.326Z,100.00
2023-02-15T07:43:00.027Z,100.00
2023-02-15T07:45:28.061Z,100.00
2023-02-15T07:47:55.209Z,100.00
2023-02-15T07:50:22.620Z,100.00
2023-02-15T07:52:49.866Z,99.90
2023-02-15T07:55:17.245Z,99.14
2023-02-15T07:57:46.090Z,99.60
2023-02-15T08:00:15.087Z,99.64
2023-02-15T08:02:42.602Z,99.67
2023-02-15T08:05:10.004Z,99.90
2023-02-15T08:07:37.216Z,100.00
2023-02-15T08:10:04.969Z,100.00
2023-02-15T08:12:31.946Z,100.00
2023-02-15T08:15:00.089Z,100.00
2023-02-15T08:17:27.327Z,100.00
2023-02-15T08:19:54.592Z,100.00
2023-02-15T08:22:21.500Z,100.00
2023-02-15T08:24:49.267Z,100.00
2023-02-15T08:27:16.141Z,99.54
2023-02-15T08:29:44.052Z,99.69
2023-02-15T08:32:13.192Z,99.38
2023-02-15T08:34:42.609Z,99.58
2023-02-15T08:37:10.455Z,99.37
2023-02-15T08:39:38.116Z,99.14
2023-02-15T08:42:05.460Z,99.31
2023-02-15T08:44:32.799Z,98.63
2023-02-15T08:47:04.627Z,99.07
2023-02-15T08:49:32.521Z,98.93
2023-02-15T08:51:59.477Z,98.25
2023-02-15T08:54:26.741Z,98.05
2023-02-15T08:56:53.809Z,97.91
2023-02-15T08:59:23.359Z,98.28
2023-02-15T09:01:52.603Z,98.15
2023-02-15T09:04:20.922Z,96.97
2023-02-15T09:06:49.966Z,97.03
2023-02-15T09:09:21.094Z,97.94
2023-02-15T09:11:54.549Z,98.02
2023-02-15T09:14:25.449Z,97.73
2023-02-15T09:16:53.506Z,97.19
2023-02-15T09:19:22.788Z,96.72
2023-02-15T09:21:49.819Z,97.06
2023-02-15T09:24:18.164Z,96.42
2023-02-15T09:26:47.923Z,96.10
2023-02-15T09:29:16.438Z,96.04
2023-02-15T09:31:50.022Z,95.79
2023-02-15T09:34:19.923Z,95.53
2023-02-15T09:36:47.906Z,95.94
2023-02-15T09:39:18.168Z,95.65
2023-02-15T09:41:56.845Z,95.96
2023-02-15T09:44:42.281Z,96.32
2023-02-15T09:47:24.490Z,96.55
2023-02-15T09:50:10.447Z,96.29
2023-02-15T09:52:50.647Z,96.80
2023-02-15T09:55:20.618Z,96.26
2023-02-15T09:58:06.557Z,96.75
2023-02-15T10:00:52.808Z,97.37
2023-02-15T10:03:26.090Z,96.97
2023-02-15T10:06:05.352Z,97.24
2023-02-15T10:09:04.575Z,96.90
2023-02-15T10:11:55.889Z,96.91
2023-02-15T10:14:38.961Z,97.42
2023-02-15T10:17:24.195Z,97.11
2023-02-15T10:20:24.802Z,97.10
2023-02-15T10:23:22.456Z,96.63
2023-02-15T10:26:17.030Z,95.83
2023-02-15T10:28:53.032Z,93.84
2023-02-15T10:31:49.019Z,95.30
2023-02-15T10:34:20.033Z,95.80
2023-02-15T10:37:18.347Z,95.69
2023-02-15T10:39:51.284Z,96.38
2023-02-15T10:42:50.676Z,96.65
2023-02-15T10:46:15.331Z,96.59
2023-02-15T10:49:02.766Z,97.35
2023-02-15T10:51:53.009Z,97.05
2023-02-15T10:54:29.336Z,97.16
2023-02-15T10:56:59.426Z,96.97
2023-02-15T10:59:36.941Z,96.74
2023-02-15T11:02:23.207Z,97.16
2023-02-15T11:05:05.313Z,96.69
2023-02-15T11:07:41.561Z,97.28
2023-02-15T11:10:16.042Z,97.29
2023-02-15T11:12:47.037Z,96.24
2023-02-15T11:15:26.744Z,97.33
2023-02-15T11:18:12.838Z,96.17
2023-02-15T11:20:51.089Z,96.72
2023-02-15T11:23:19.420Z,96.93
2023-02-15T11:25:59.398Z,96.86
2023-02-15T11:28:37.863Z,95.65
2023-02-15T11:31:27.480Z,96.07
2023-02-15T11:34:38.531Z,95.83
2023-02-15T11:37:14.301Z,96.60
2023-02-15T11:39:41.961Z,97.08
2023-02-15T11:42:16.865Z,96.79
2023-02-15T11:45:15.688Z,96.06
2023-02-15T11:47:42.562Z,95.61
2023-02-15T11:50:23.045Z,95.69
2023-02-15T11:52:53.105Z,96.24
2023-02-15T11:55:23.736Z,95.77
2023-02-15T11:58:00.108Z,97.07
2023-02-15T12:00:37.182Z,97.27
2023-02-15T12:03:15.969Z,95.96
2023-02-15T12:05:46.416Z,96.20
2023-02-15T12:08:18.782Z,95.99
2023-02-15T12:11:05.274Z,96.58
2023-02-15T12:13:32.497Z,97.59
2023-02-15T12:16:09.281Z,96.86
2023-02-15T12:18:45.293Z,97.13
2023-02-15T12:21:25.382Z,97.26
2023-02-15T12:23:56.723Z,97.00
2023-02-15T12:26:31.816Z,96.32
2023-02-15T12:29:17.544Z,96.41
2023-02-15T12:31:51.222Z,96.37
2023-02-15T12:34:32.598Z,95.74
2023-02-15T12:37:09.856Z,95.04
2023-02-15T12:39:36.969Z,95.96
2023-02-15T12:42:16.587Z,95.37
2023-02-15T12:45:22.196Z,96.23
2023-02-15T12:48:11.163Z,96.80
2023-02-15T12:50:38.238Z,97.08
2023-02-15T12:53:20.076Z,97.16
2023-02-15T12:55:59.324Z,96.32
2023-02-15T12:58:29.178Z,96.02
2023-02-15T13:01:25.568Z,95.79
2023-02-15T13:04:05.324Z,95.99
2023-02-15T13:06:37.650Z,96.82
2023-02-15T13:09:21.217Z,96.08
2023-02-15T13:11:48.636Z,96.56
2023-02-15T13:14:27.570Z,96.22
2023-02-15T13:17:00.089Z,96.80
2023-02-15T13:19:41.181Z,96.94
2023-02-15T13:22:17.641Z,96.56
2023-02-15T13:25:00.506Z,96.26
2023-02-15T13:27:40.215Z,95.32
2023-02-15T13:30:25.974Z,95.96
2023-02-15T13:32:58.556Z,95.97
2023-02-15T13:35:29.439Z,95.64
2023-02-15T13:38:14.478Z,95.77
2023-02-15T13:41:00.073Z,95.99
2023-02-15T13:43:34.710Z,96.02
2023-02-15T13:46:14.134Z,95.77
2023-02-15T13:49:10.431Z,95.75
2023-02-15T13:52:02.485Z,96.28
2023-02-15T13:54:47.959Z,96.20
2023-02-15T13:57:59.748Z,96.26
2023-02-15T14:00:49.030Z,96.38
2023-02-15T14:03:40.976Z,96.56
2023-02-15T14:06:40.285Z,96.69
2023-02-15T14:09:33.299Z,97.04
2023-02-15T14:12:15.700Z,97.51
2023-02-15T14:15:14.070Z,97.05
2023-02-15T14:17:53.181Z,97.65
2023-02-15T14:20:57.667Z,97.15
2023-02-15T14:23:31.915Z,97.39
2023-02-15T14:26:24.075Z,97.18
2023-02-15T14:28:56.014Z,96.78
2023-02-15T14:31:32.176Z,97.00
2023-02-15T14:33:59.253Z,97.05
2023-02-15T14:36:31.317Z,97.31
2023-02-15T14:39:30.314Z,96.88
2023-02-15T14:42:06.338Z,96.88
2023-02-15T14:44:48.789Z,96.61
2023-02-15T14:47:23.365Z,96.78
2023-02-15T14:49:50.265Z,97.40
2023-02-15T14:52:17.569Z,97.03
2023-02-15T14:54:47.594Z,97.38
2023-02-15T14:57:14.845Z,97.37
2023-02-15T14:59:46.447Z,97.02
2023-02-15T15:02:18.195Z,97.40
2023-02-15T15:04:51.336Z,97.79
2023-02-15T15:07:37.215Z,97.46
2023-02-15T15:10:19.194Z,97.21
2023-02-15T15:12:50.156Z,96.86
2023-02-15T15:15:32.194Z,97.26
2023-02-15T15:18:10.711Z,97.07
2023-02-15T15:20:52.728Z,97.10
2023-02-15T15:23:20.025Z,96.92
2023-02-15T15:25:52.868Z,97.12
2023-02-15T15:28:35.148Z,96.54
2023-02-15T15:31:17.440Z,97.16
2023-02-15T15:34:22.576Z,96.93
2023-02-15T15:37:07.988Z,97.49
2023-02-15T15:39:44.309Z,97.27
2023-02-15T15:42:45.561Z,97.50
2023-02-15T15:45:38.669Z,97.29
2023-02-15T15:48:07.573Z,97.71
2023-02-15T15:50:35.213Z,98.12
2023-02-15T15:53:04.285Z,98.04
2023-02-15T15:55:34.680Z,98.24
2023-02-15T15:58:08.296Z,97.98
2023-02-15T16:00:39.488Z,97.58
2023-02-15T16:03:06.783Z,97.99
2023-02-15T16:05:39.416Z,97.80
2023-02-15T16:08:06.949Z,97.76
2023-02-15T16:10:37.102Z,97.13
2023-02-15T16:13:05.792Z,97.70
2023-02-15T16:15:50.831Z,97.68
2023-02-15T16:18:19.840Z,97.74
2023-02-15T16:20:54.246Z,97.47
2023-02-15T16:23:39.250Z,97.48
2023-02-15T16:26:18.758Z,97.64
2023-02-15T16:28:53.929Z,97.53
2023-02-15T16:31:25.962Z,97.43
2023-02-15T16:33:56.141Z,97.57
2023-02-15T16:36:26.174Z,97.41
2023-02-15T16:38:53.532Z,96.87
2023-02-15T16:41:28.206Z,96.89
2023-02-15T16:43:58.081Z,96.78
2023-02-15T16:46:32.594Z,97.29
2023-02-15T16:49:03.219Z,96.73
2023-02-15T16:51:33.682Z,96.90
2023-02-15T16:54:08.963Z,97.05
2023-02-15T16:56:37.498Z,96.98
2023-02-15T16:59:04.562Z,97.06
2023-02-15T17:01:33.804Z,97.00
2023-02-15T17:04:32.592Z,97.21
2023-02-15T17:07:17.411Z,97.65
2023-02-15T17:09:56.410Z,97.76
2023-02-15T17:12:56.171Z,97.80
2023-02-15T17:15:38.051Z,97.05
2023-02-15T17:18:21.620Z,97.16
2023-02-15T17:20:50.964Z,96.92
2023-02-15T17:23:49.264Z,97.02
2023-02-15T17:26:21.477Z,97.00
2023-02-15T17:28:59.026Z,97.31
2023-02-15T17:31:30.824Z,97.44
2023-02-15T17:33:59.396Z,97.40
2023-02-15T17:36:30.384Z,97.19
2023-02-15T17:38:57.797Z,97.11
2023-02-15T17:41:25.248Z,97.54
2023-02-15T17:43:52.755Z,97.55
2023-02-15T17:46:22.942Z,98.25
2023-02-15T17:48:52.888Z,97.97
2023-02-15T17:51:20.851Z,97.29
2023-02-15T17:54:08.728Z,97.56
2023-02-15T17:56:37.962Z,97.62
2023-02-15T17:59:10.335Z,97.54
2023-02-15T18:02:02.518Z,97.26
2023-02-15T18:04:49.825Z,97.55
2023-02-15T18:07:37.485Z,97.46
2023-02-15T18:10:36.187Z,97.27
2023-02-15T18:13:03.856Z,96.74
2023-02-15T18:15:31.208Z,97.05
2023-02-15T18:17:58.303Z,96.78
2023-02-15T18:20:36.815Z,96.33
2023-02-15T18:23:03.846Z,96.56
2023-02-15T18:25:31.434Z,96.65
2023-02-15T18:27:58.719Z,96.78
2023-02-15T18:30:27.009Z,96.78
2023-02-15T18:32:59.250Z,97.00
2023-02-15T18:35:30.243Z,96.37
2023-02-15T18:37:58.309Z,96.67
2023-02-15T18:40:27.573Z,96.66
2023-02-15T18:42:56.971Z,96.91
2023-02-15T18:45:32.884Z,96.74
2023-02-15T18:48:00.095Z,96.70
2023-02-15T18:50:31.036Z,97.20
2023-02-15T18:52:58.023Z,97.24
2023-02-15T18:55:29.086Z,96.48
2023-02-15T18:57:57.351Z,96.72
2023-02-15T19:00:30.670Z,96.47
2023-02-15T19:02:58.165Z,96.72
2023-02-15T19:05:28.173Z,96.51
2023-02-15T19:07:57.338Z,96.58
2023-02-15T19:10:26.440Z,96.52
2023-02-15T19:12:54.544Z,96.27
2023-02-15T19:15:24.804Z,96.86
2023-02-15T19:17:52.780Z,96.88
2023-02-15T19:20:26.459Z,96.89
2023-02-15T19:22:55.691Z,96.99
2023-02-15T19:25:28.585Z,96.92
2023-02-15T19:27:56.445Z,96.78
2023-02-15T19:30:29.966Z,97.19
2023-02-15T19:32:58.670Z,96.71
2023-02-15T19:35:35.632Z,96.33
2023-02-15T19:38:07.983Z,96.97
2023-02-15T19:40:36.580Z,96.90
2023-02-15T19:43:04.512Z,96.75
2023-02-15T19:45:32.733Z,96.51
2023-02-15T19:48:02.530Z,96.88
2023-02-15T19:50:31.561Z,97.08
2023-02-15T19:52:59.271Z,96.79
2023-02-15T19:55:32.762Z,97.06
2023-02-15T19:58:01.999Z,97.00
2023-02-15T20:00:32.333Z,97.05
2023-02-15T20:03:00.362Z,97.21
2023-02-15T20:05:30.358Z,97.52
2023-02-15T20:07:58.058Z,97.72
2023-02-15T20:10:30.909Z,98.02
2023-02-15T20:12:58.079Z,98.29
2023-02-15T20:15:34.618Z,98.56
2023-02-15T20:18:04.138Z,98.63
2023-02-15T20:20:39.138Z,98.74
2023-02-15T20:23:07.148Z,99.10
2023-02-15T20:25:34.557Z,99.51
2023-02-15T20:28:01.826Z,99.43
2023-02-15T20:30:31.989Z,99.63
2023-02-15T20:32:59.797Z,99.37
2023-02-15T20:35:29.258Z,99.61
2023-02-15T20:38:03.117Z,99.28
2023-02-15T20:40:33.478Z,99.48
2023-02-15T20:43:01.220Z,99.55
2023-02-15T20:45:31.566Z,99.84
2023-02-15T20:48:01.942Z,100.00
2023-02-15T20:50:32.222Z,100.00
2023-02-15T20:53:02.641Z,99.91
2023-02-15T20:55:31.690Z,100.00
2023-02-15T20:57:59.678Z,100.00
2023-02-15T21:00:29.375Z,100.00
2023-02-15T21:03:01.357Z,100.00
2023-02-15T21:05:35.618Z,100.00
2023-02-15T21:08:02.637Z,100.00
2023-02-15T21:10:34.314Z,100.00
2023-02-15T21:13:01.579Z,100.00
2023-02-15T21:15:35.591Z,100.00
2023-02-15T21:18:05.660Z,100.00
2023-02-15T21:20:35.155Z,100.00
2023-02-15T21:23:04.778Z,100.00
2023-02-15T21:25:36.617Z,100.00
2023-02-15T21:28:05.534Z,100.00
2023-02-15T21:30:32.805Z,100.00
2023-02-15T21:32:59.849Z,100.00
2023-02-15T21:35:28.696Z,100.00
2023-02-15T21:37:56.483Z,100.00
2023-02-15T21:40:27.701Z,100.00
2023-02-15T21:43:13.584Z,100.00
2023-02-15T21:45:59.386Z,100.00
2023-02-15T21:48:26.270Z,100.00
2023-02-15T21:51:13.142Z,100.00
2023-02-15T21:53:43.150Z,100.00
2023-02-15T21:56:16.703Z,100.00
2023-02-15T21:58:43.635Z,100.00
2023-02-15T22:01:21.940Z,100.00
2023-02-15T22:03:49.750Z,100.00
2023-02-15T22:06:17.257Z,100.00
2023-02-15T22:08:44.747Z,100.00
2023-02-15T22:11:14.195Z,100.00
2023-02-15T22:13:42.803Z,100.00
2023-02-15T22:16:16.699Z,100.00
2023-02-15T22:18:43.666Z,100.00
2023-02-15T22:21:11.733Z,100.00
2023-02-15T22:23:39.119Z,100.00
2023-02-15T22:26:28.286Z,100.00
2023-02-15T22:28:56.801Z,100.00
2023-02-15T22:31:24.160Z,100.00
2023-02-15T22:33:51.338Z,100.00
2023-02-15T22:36:30.233Z,100.00
2023-02-15T22:38:57.916Z,100.00
2023-02-15T22:41:29.120Z,100.00
2023-02-15T22:43:56.905Z,100.00
2023-02-15T22:46:25.803Z,100.00
2023-02-15T22:48:53.019Z,100.00
2023-02-15T22:51:23.408Z,100.00
2023-02-15T22:53:54.089Z,100.00
2023-02-15T22:56:52.396Z,100.00
2023-02-15T22:59:23.882Z,100.00
2023-02-15T23:01:51.232Z,100.00
2023-02-15T23:04:21.416Z,100.00
2023-02-15T23:06:49.871Z,100.00
2023-02-15T23:09:17.199Z,100.00
2023-02-15T23:11:45.959Z,100.00
2023-02-15T23:14:25.916Z,100.00
2023-02-15T23:16:54.057Z,100.00
2023-02-15T23:19:21.423Z,100.00
2023-02-15T23:21:48.872Z,100.00
2023-02-15T23:24:22.137Z,100.00
2023-02-15T23:31:27.670Z,100.00
2023-02-15T23:43:06.125Z,100.00
2023-02-15T23:45:38.114Z,100.00
2023-02-15T23:48:35.698Z,100.00
2023-02-15T23:51:03.736Z,100.00
2023-02-15T23:53:32.041Z,100.00
2023-02-15T23:55:59.637Z,100.00
2023-02-15T23:58:38.885Z,100.00
